sensor_id;sensor_type;location;lat;lon;timestamp;temperature;humidity
7325;DHT22;3703;48.016;7.802;2022-09-13T00:02:08;18.40;1.00
7325;DHT22;3703;48.016;7.802;2022-09-13T00:04:55;18.40;1.00
7325;DHT22;3703;48.016;7.802;2022-09-13T00:07:43;18.30;1.00
7325;DHT22;3703;48.016;7.802;2022-09-13T00:10:32;18.30;1.00
7325;DHT22;3703;48.016;7.802;2022-09-13T00:13:22;18.30;1.00
7325;DHT22;3703;48.016;7.802;2022-09-13T00:16:11;18.00;1.00
7325;DHT22;3703;48.016;7.802;2022-09-13T00:18:59;18.00;1.00
7325;DHT22;3703;48.016;7.802;2022-09-13T00:21:46;18.00;1.00
7325;DHT22;3703;48.016;7.802;2022-09-13T00:24:34;18.00;1.00
7325;DHT22;3703;48.016;7.802;2022-09-13T00:27:22;18.00;1.00
7325;DHT22;3703;48.016;7.802;2022-09-13T00:30:12;18.00;1.00
7325;DHT22;3703;48.016;7.802;2022-09-13T00:33:00;17.90;1.00
7325;DHT22;3703;48.016;7.802;2022-09-13T00:35:49;17.80;1.00
7325;DHT22;3703;48.016;7.802;2022-09-13T00:38:38;17.70;1.00
7325;DHT22;3703;48.016;7.802;2022-09-13T00:41:26;17.70;1.00
7325;DHT22;3703;48.016;7.802;2022-09-13T00:47:54;17.60;1.00
7325;DHT22;3703;48.016;7.802;2022-09-13T00:50:45;17.70;1.00
7325;DHT22;3703;48.016;7.802;2022-09-13T00:53:36;17.70;1.00
7325;DHT22;3703;48.016;7.802;2022-09-13T00:56:29;17.60;1.00
7325;DHT22;3703;48.016;7.802;2022-09-13T00:59:23;17.70;1.00
7325;DHT22;3703;48.016;7.802;2022-09-13T01:02:13;17.60;1.00
7325;DHT22;3703;48.016;7.802;2022-09-13T01:05:03;17.60;1.00
7325;DHT22;3703;48.016;7.802;2022-09-13T01:07:52;17.60;1.00
7325;DHT22;3703;48.016;7.802;2022-09-13T01:10:39;17.60;1.00
7325;DHT22;3703;48.016;7.802;2022-09-13T01:13:29;17.50;1.00
7325;DHT22;3703;48.016;7.802;2022-09-13T01:16:18;17.50;1.00
7325;DHT22;3703;48.016;7.802;2022-09-13T01:19:06;17.50;1.00
7325;DHT22;3703;48.016;7.802;2022-09-13T01:22:28;17.40;1.00
7325;DHT22;3703;48.016;7.802;2022-09-13T01:29:36;17.40;1.00
7325;DHT22;3703;48.016;7.802;2022-09-13T01:39:56;17.30;1.00
7325;DHT22;3703;48.016;7.802;2022-09-13T01:43:15;17.40;1.00
7325;DHT22;3703;48.016;7.802;2022-09-13T01:46:11;17.40;1.00
7325;DHT22;3703;48.016;7.802;2022-09-13T01:49:11;17.40;1.00
7325;DHT22;3703;48.016;7.802;2022-09-13T01:52:06;17.60;1.00
7325;DHT22;3703;48.016;7.802;2022-09-13T01:55:00;17.60;1.00
7325;DHT22;3703;48.016;7.802;2022-09-13T01:57:58;17.70;1.00
7325;DHT22;3703;48.016;7.802;2022-09-13T02:00:58;17.50;1.00
7325;DHT22;3703;48.016;7.802;2022-09-13T02:03:52;17.50;1.00
7325;DHT22;3703;48.016;7.802;2022-09-13T02:06:45;17.50;1.00
7325;DHT22;3703;48.016;7.802;2022-09-13T02:09:39;17.40;1.00
7325;DHT22;3703;48.016;7.802;2022-09-13T02:12:31;17.40;1.00
7325;DHT22;3703;48.016;7.802;2022-09-13T02:15:23;17.40;1.00
7325;DHT22;3703;48.016;7.802;2022-09-13T02:18:15;17.30;1.00
7325;DHT22;3703;48.016;7.802;2022-09-13T02:21:09;17.30;1.00
7325;DHT22;3703;48.016;7.802;2022-09-13T02:24:02;17.30;1.00
7325;DHT22;3703;48.016;7.802;2022-09-13T02:26:54;17.20;1.00
7325;DHT22;3703;48.016;7.802;2022-09-13T02:29:45;17.10;1.00
7325;DHT22;3703;48.016;7.802;2022-09-13T02:32:36;17.00;1.00
7325;DHT22;3703;48.016;7.802;2022-09-13T02:35:31;17.00;1.00
7325;DHT22;3703;48.016;7.802;2022-09-13T02:38:23;16.50;1.00
7325;DHT22;3703;48.016;7.802;2022-09-13T02:41:18;16.70;1.00
7325;DHT22;3703;48.016;7.802;2022-09-13T02:44:16;16.50;1.00
7325;DHT22;3703;48.016;7.802;2022-09-13T02:47:10;16.50;1.00
7325;DHT22;3703;48.016;7.802;2022-09-13T02:50:16;16.50;1.00
7325;DHT22;3703;48.016;7.802;2022-09-13T02:53:13;16.60;1.00
7325;DHT22;3703;48.016;7.802;2022-09-13T02:56:14;16.60;1.00
7325;DHT22;3703;48.016;7.802;2022-09-13T02:59:12;16.70;1.00
7325;DHT22;3703;48.016;7.802;2022-09-13T03:02:05;16.70;1.00
7325;DHT22;3703;48.016;7.802;2022-09-13T03:04:54;16.60;1.00
7325;DHT22;3703;48.016;7.802;2022-09-13T03:07:42;16.60;1.00
7325;DHT22;3703;48.016;7.802;2022-09-13T03:10:34;16.40;1.00
7325;DHT22;3703;48.016;7.802;2022-09-13T03:13:56;16.50;1.00
7325;DHT22;3703;48.016;7.802;2022-09-13T03:17:07;16.50;1.00
7325;DHT22;3703;48.016;7.802;2022-09-13T03:20:08;16.60;1.00
7325;DHT22;3703;48.016;7.802;2022-09-13T03:23:33;16.50;1.00
7325;DHT22;3703;48.016;7.802;2022-09-13T03:26:34;16.60;1.00
7325;DHT22;3703;48.016;7.802;2022-09-13T03:29:32;16.50;1.00
7325;DHT22;3703;48.016;7.802;2022-09-13T03:32:34;16.60;1.00
7325;DHT22;3703;48.016;7.802;2022-09-13T03:35:28;16.50;1.00
7325;DHT22;3703;48.016;7.802;2022-09-13T03:38:24;16.40;1.00
7325;DHT22;3703;48.016;7.802;2022-09-13T03:41:19;16.30;1.00
7325;DHT22;3703;48.016;7.802;2022-09-13T03:44:11;16.40;1.00
7325;DHT22;3703;48.016;7.802;2022-09-13T03:47:03;16.40;1.00
7325;DHT22;3703;48.016;7.802;2022-09-13T03:49:52;16.40;1.00
7325;DHT22;3703;48.016;7.802;2022-09-13T03:52:40;16.40;1.00
7325;DHT22;3703;48.016;7.802;2022-09-13T03:55:31;16.40;1.00
7325;DHT22;3703;48.016;7.802;2022-09-13T03:58:20;16.30;1.00
7325;DHT22;3703;48.016;7.802;2022-09-13T04:01:08;16.30;1.00
7325;DHT22;3703;48.016;7.802;2022-09-13T04:03:57;16.30;1.00
7325;DHT22;3703;48.016;7.802;2022-09-13T04:06:45;16.40;1.00
7325;DHT22;3703;48.016;7.802;2022-09-13T04:09:33;16.20;1.00
7325;DHT22;3703;48.016;7.802;2022-09-13T04:12:21;16.20;1.00
7325;DHT22;3703;48.016;7.802;2022-09-13T04:15:08;16.20;1.00
7325;DHT22;3703;48.016;7.802;2022-09-13T04:17:56;16.20;1.00
7325;DHT22;3703;48.016;7.802;2022-09-13T04:20:52;16.20;1.00
7325;DHT22;3703;48.016;7.802;2022-09-13T04:23:40;16.20;1.00
7325;DHT22;3703;48.016;7.802;2022-09-13T04:26:28;16.10;1.00
7325;DHT22;3703;48.016;7.802;2022-09-13T04:29:16;16.10;1.00
7325;DHT22;3703;48.016;7.802;2022-09-13T04:32:04;16.00;1.00
7325;DHT22;3703;48.016;7.802;2022-09-13T04:34:52;16.00;1.00
7325;DHT22;3703;48.016;7.802;2022-09-13T04:37:41;16.00;1.00
7325;DHT22;3703;48.016;7.802;2022-09-13T04:40:29;16.00;1.00
7325;DHT22;3703;48.016;7.802;2022-09-13T04:43:16;15.80;1.00
7325;DHT22;3703;48.016;7.802;2022-09-13T04:46:04;15.90;1.00
7325;DHT22;3703;48.016;7.802;2022-09-13T04:48:52;16.00;1.00
7325;DHT22;3703;48.016;7.802;2022-09-13T04:51:40;16.00;1.00
7325;DHT22;3703;48.016;7.802;2022-09-13T04:54:29;16.00;1.00
7325;DHT22;3703;48.016;7.802;2022-09-13T04:57:17;15.90;1.00
7325;DHT22;3703;48.016;7.802;2022-09-13T05:00:05;15.90;1.00
7325;DHT22;3703;48.016;7.802;2022-09-13T05:02:55;15.80;1.00
7325;DHT22;3703;48.016;7.802;2022-09-13T05:05:43;15.80;1.00
7325;DHT22;3703;48.016;7.802;2022-09-13T05:08:32;15.80;1.00
7325;DHT22;3703;48.016;7.802;2022-09-13T05:11:22;15.80;1.00
7325;DHT22;3703;48.016;7.802;2022-09-13T05:14:11;15.40;1.00
7325;DHT22;3703;48.016;7.802;2022-09-13T05:16:59;15.90;1.00
7325;DHT22;3703;48.016;7.802;2022-09-13T05:19:46;15.90;1.00
7325;DHT22;3703;48.016;7.802;2022-09-13T05:22:34;15.90;1.00
7325;DHT22;3703;48.016;7.802;2022-09-13T05:25:21;15.80;1.00
7325;DHT22;3703;48.016;7.802;2022-09-13T05:28:10;15.80;1.00
7325;DHT22;3703;48.016;7.802;2022-09-13T05:30:59;15.90;1.00
7325;DHT22;3703;48.016;7.802;2022-09-13T05:33:52;15.90;1.00
7325;DHT22;3703;48.016;7.802;2022-09-13T05:36:42;16.00;1.00
7325;DHT22;3703;48.016;7.802;2022-09-13T05:39:30;16.00;1.00
7325;DHT22;3703;48.016;7.802;2022-09-13T05:42:18;16.10;1.00
7325;DHT22;3703;48.016;7.802;2022-09-13T05:45:08;16.10;1.00
7325;DHT22;3703;48.016;7.802;2022-09-13T05:47:55;15.90;1.00
7325;DHT22;3703;48.016;7.802;2022-09-13T05:50:43;15.90;1.00
7325;DHT22;3703;48.016;7.802;2022-09-13T05:53:31;16.00;1.00
7325;DHT22;3703;48.016;7.802;2022-09-13T05:56:20;16.20;1.00
7325;DHT22;3703;48.016;7.802;2022-09-13T05:59:11;16.30;1.00
7325;DHT22;3703;48.016;7.802;2022-09-13T06:02:01;16.20;1.00
7325;DHT22;3703;48.016;7.802;2022-09-13T06:04:49;16.30;1.00
7325;DHT22;3703;48.016;7.802;2022-09-13T06:07:38;16.20;1.00
7325;DHT22;3703;48.016;7.802;2022-09-13T06:10:27;16.30;1.00
7325;DHT22;3703;48.016;7.802;2022-09-13T06:13:15;16.30;1.00
7325;DHT22;3703;48.016;7.802;2022-09-13T06:16:05;16.40;1.00
7325;DHT22;3703;48.016;7.802;2022-09-13T06:18:56;16.20;1.00
7325;DHT22;3703;48.016;7.802;2022-09-13T06:21:44;16.40;1.00
7325;DHT22;3703;48.016;7.802;2022-09-13T06:24:32;16.50;1.00
7325;DHT22;3703;48.016;7.802;2022-09-13T06:27:22;16.50;1.00
7325;DHT22;3703;48.016;7.802;2022-09-13T06:30:10;16.50;1.00
7325;DHT22;3703;48.016;7.802;2022-09-13T06:32:58;16.60;1.00
7325;DHT22;3703;48.016;7.802;2022-09-13T06:35:47;16.60;1.00
7325;DHT22;3703;48.016;7.802;2022-09-13T06:38:35;16.60;1.00
7325;DHT22;3703;48.016;7.802;2022-09-13T06:41:23;16.70;1.00
7325;DHT22;3703;48.016;7.802;2022-09-13T06:44:12;16.90;1.00
7325;DHT22;3703;48.016;7.802;2022-09-13T06:47:00;17.00;1.00
7325;DHT22;3703;48.016;7.802;2022-09-13T06:49:47;17.20;1.00
7325;DHT22;3703;48.016;7.802;2022-09-13T06:52:36;17.30;1.00
7325;DHT22;3703;48.016;7.802;2022-09-13T06:55:24;17.40;1.00
7325;DHT22;3703;48.016;7.802;2022-09-13T06:58:12;17.60;1.00
7325;DHT22;3703;48.016;7.802;2022-09-13T07:01:07;17.80;1.00
7325;DHT22;3703;48.016;7.802;2022-09-13T07:03:58;17.90;1.00
7325;DHT22;3703;48.016;7.802;2022-09-13T07:06:48;18.10;1.00
7325;DHT22;3703;48.016;7.802;2022-09-13T07:09:37;18.30;1.00
7325;DHT22;3703;48.016;7.802;2022-09-13T07:12:28;18.30;1.00
7325;DHT22;3703;48.016;7.802;2022-09-13T07:15:15;18.50;1.00
7325;DHT22;3703;48.016;7.802;2022-09-13T07:18:03;18.50;1.00
7325;DHT22;3703;48.016;7.802;2022-09-13T07:20:58;18.70;1.00
7325;DHT22;3703;48.016;7.802;2022-09-13T07:23:47;18.80;1.00
7325;DHT22;3703;48.016;7.802;2022-09-13T07:26:37;19.00;1.00
7325;DHT22;3703;48.016;7.802;2022-09-13T07:29:24;19.30;1.00
7325;DHT22;3703;48.016;7.802;2022-09-13T07:32:12;19.40;1.00
7325;DHT22;3703;48.016;7.802;2022-09-13T07:35:00;19.50;1.00
7325;DHT22;3703;48.016;7.802;2022-09-13T07:37:47;19.50;1.00
7325;DHT22;3703;48.016;7.802;2022-09-13T07:40:35;19.60;1.00
7325;DHT22;3703;48.016;7.802;2022-09-13T07:43:25;19.70;1.00
7325;DHT22;3703;48.016;7.802;2022-09-13T07:46:14;19.80;1.00
7325;DHT22;3703;48.016;7.802;2022-09-13T07:49:03;19.90;1.00
7325;DHT22;3703;48.016;7.802;2022-09-13T07:51:50;20.00;1.00
7325;DHT22;3703;48.016;7.802;2022-09-13T07:54:38;19.90;1.00
7325;DHT22;3703;48.016;7.802;2022-09-13T07:57:26;20.00;1.00
7325;DHT22;3703;48.016;7.802;2022-09-13T08:00:15;20.10;1.00
7325;DHT22;3703;48.016;7.802;2022-09-13T08:03:03;20.30;1.00
7325;DHT22;3703;48.016;7.802;2022-09-13T08:05:51;20.40;1.00
7325;DHT22;3703;48.016;7.802;2022-09-13T08:08:38;20.60;1.00
7325;DHT22;3703;48.016;7.802;2022-09-13T08:11:28;20.70;1.00
7325;DHT22;3703;48.016;7.802;2022-09-13T08:14:18;21.00;1.00
7325;DHT22;3703;48.016;7.802;2022-09-13T08:17:08;21.40;1.00
7325;DHT22;3703;48.016;7.802;2022-09-13T08:19:56;21.40;1.00
7325;DHT22;3703;48.016;7.802;2022-09-13T08:22:44;21.60;1.00
7325;DHT22;3703;48.016;7.802;2022-09-13T08:25:32;21.70;1.00
7325;DHT22;3703;48.016;7.802;2022-09-13T08:28:21;21.90;1.00
7325;DHT22;3703;48.016;7.802;2022-09-13T08:31:11;21.90;1.00
7325;DHT22;3703;48.016;7.802;2022-09-13T08:34:03;21.60;1.00
7325;DHT22;3703;48.016;7.802;2022-09-13T08:36:51;21.20;1.00
7325;DHT22;3703;48.016;7.802;2022-09-13T08:39:39;21.20;1.00
7325;DHT22;3703;48.016;7.802;2022-09-13T08:42:37;21.40;1.00
7325;DHT22;3703;48.016;7.802;2022-09-13T08:45:31;21.70;1.00
7325;DHT22;3703;48.016;7.802;2022-09-13T08:48:22;22.10;1.00
7325;DHT22;3703;48.016;7.802;2022-09-13T08:51:26;22.50;1.00
7325;DHT22;3703;48.016;7.802;2022-09-13T08:54:16;22.80;1.00
7325;DHT22;3703;48.016;7.802;2022-09-13T08:57:11;23.00;99.90
7325;DHT22;3703;48.016;7.802;2022-09-13T09:00:05;23.00;99.90
7325;DHT22;3703;48.016;7.802;2022-09-13T09:03:13;23.00;99.90
7325;DHT22;3703;48.016;7.802;2022-09-13T09:06:10;23.00;99.90
7325;DHT22;3703;48.016;7.802;2022-09-13T09:09:04;23.00;99.90
7325;DHT22;3703;48.016;7.802;2022-09-13T09:11:58;23.00;99.90
7325;DHT22;3703;48.016;7.802;2022-09-13T09:14:57;23.10;99.90
7325;DHT22;3703;48.016;7.802;2022-09-13T09:17:52;23.20;99.90
7325;DHT22;3703;48.016;7.802;2022-09-13T09:20:44;23.00;99.90
7325;DHT22;3703;48.016;7.802;2022-09-13T09:23:37;23.00;99.90
7325;DHT22;3703;48.016;7.802;2022-09-13T09:26:29;23.40;1.00
7325;DHT22;3703;48.016;7.802;2022-09-13T09:29:19;23.70;99.90
7325;DHT22;3703;48.016;7.802;2022-09-13T09:32:18;24.00;99.90
7325;DHT22;3703;48.016;7.802;2022-09-13T09:35:25;23.90;75.90
7325;DHT22;3703;48.016;7.802;2022-09-13T09:38:38;24.30;99.90
7325;DHT22;3703;48.016;7.802;2022-09-13T09:41:30;24.50;72.90
7325;DHT22;3703;48.016;7.802;2022-09-13T09:44:21;24.70;1.00
7325;DHT22;3703;48.016;7.802;2022-09-13T09:47:13;24.50;35.00
7325;DHT22;3703;48.016;7.802;2022-09-13T09:50:08;24.40;99.90
7325;DHT22;3703;48.016;7.802;2022-09-13T09:53:02;24.50;1.00
7325;DHT22;3703;48.016;7.802;2022-09-13T09:55:54;25.10;11.20
7325;DHT22;3703;48.016;7.802;2022-09-13T09:58:47;25.60;1.00
7325;DHT22;3703;48.016;7.802;2022-09-13T10:01:37;25.30;1.00
7325;DHT22;3703;48.016;7.802;2022-09-13T10:04:27;25.50;99.90
7325;DHT22;3703;48.016;7.802;2022-09-13T10:07:24;25.80;1.00
7325;DHT22;3703;48.016;7.802;2022-09-13T10:10:22;26.30;1.00
7325;DHT22;3703;48.016;7.802;2022-09-13T10:13:15;26.50;99.90
7325;DHT22;3703;48.016;7.802;2022-09-13T10:16:23;26.40;99.90
7325;DHT22;3703;48.016;7.802;2022-09-13T10:19:22;26.30;99.90
7325;DHT22;3703;48.016;7.802;2022-09-13T10:22:12;26.10;99.90
7325;DHT22;3703;48.016;7.802;2022-09-13T10:25:13;26.50;1.00
7325;DHT22;3703;48.016;7.802;2022-09-13T10:28:04;26.00;99.90
7325;DHT22;3703;48.016;7.802;2022-09-13T10:30:57;26.20;99.90
7325;DHT22;3703;48.016;7.802;2022-09-13T10:33:56;26.90;1.00
7325;DHT22;3703;48.016;7.802;2022-09-13T10:36:52;27.40;1.00
7325;DHT22;3703;48.016;7.802;2022-09-13T10:39:52;27.80;59.80
7325;DHT22;3703;48.016;7.802;2022-09-13T10:42:49;27.70;99.90
7325;DHT22;3703;48.016;7.802;2022-09-13T10:45:40;27.70;99.90
7325;DHT22;3703;48.016;7.802;2022-09-13T10:48:29;28.30;99.90
7325;DHT22;3703;48.016;7.802;2022-09-13T10:51:30;28.80;99.90
7325;DHT22;3703;48.016;7.802;2022-09-13T10:54:22;29.00;1.00
7325;DHT22;3703;48.016;7.802;2022-09-13T10:57:32;29.30;99.90
7325;DHT22;3703;48.016;7.802;2022-09-13T11:00:23;29.90;1.00
7325;DHT22;3703;48.016;7.802;2022-09-13T11:03:26;30.30;1.00
7325;DHT22;3703;48.016;7.802;2022-09-13T11:06:31;30.80;99.90
7325;DHT22;3703;48.016;7.802;2022-09-13T11:09:32;31.20;1.00
7325;DHT22;3703;48.016;7.802;2022-09-13T11:12:27;31.40;1.00
7325;DHT22;3703;48.016;7.802;2022-09-13T11:15:27;31.70;1.00
7325;DHT22;3703;48.016;7.802;2022-09-13T11:18:37;32.00;1.00
7325;DHT22;3703;48.016;7.802;2022-09-13T11:21:44;32.40;99.90
7325;DHT22;3703;48.016;7.802;2022-09-13T11:24:46;32.40;99.90
7325;DHT22;3703;48.016;7.802;2022-09-13T11:27:54;32.60;99.90
7325;DHT22;3703;48.016;7.802;2022-09-13T11:31:02;32.80;99.90
7325;DHT22;3703;48.016;7.802;2022-09-13T11:34:07;33.10;99.90
7325;DHT22;3703;48.016;7.802;2022-09-13T11:37:17;32.90;99.90
7325;DHT22;3703;48.016;7.802;2022-09-13T11:40:28;32.70;99.90
7325;DHT22;3703;48.016;7.802;2022-09-13T11:43:37;32.20;99.90
7325;DHT22;3703;48.016;7.802;2022-09-13T11:46:39;32.10;99.90
7325;DHT22;3703;48.016;7.802;2022-09-13T11:49:50;31.90;99.90
7325;DHT22;3703;48.016;7.802;2022-09-13T11:52:56;31.80;99.90
7325;DHT22;3703;48.016;7.802;2022-09-13T11:55:53;31.70;99.90
7325;DHT22;3703;48.016;7.802;2022-09-13T11:58:46;31.30;99.90
7325;DHT22;3703;48.016;7.802;2022-09-13T12:01:38;31.20;99.90
7325;DHT22;3703;48.016;7.802;2022-09-13T12:04:34;31.10;99.90
7325;DHT22;3703;48.016;7.802;2022-09-13T12:07:39;31.00;99.90
7325;DHT22;3703;48.016;7.802;2022-09-13T12:10:34;30.80;99.90
7325;DHT22;3703;48.016;7.802;2022-09-13T12:13:26;30.90;99.90
7325;DHT22;3703;48.016;7.802;2022-09-13T12:16:21;31.00;99.90
7325;DHT22;3703;48.016;7.802;2022-09-13T12:19:15;30.90;99.90
7325;DHT22;3703;48.016;7.802;2022-09-13T12:22:06;30.70;99.90
7325;DHT22;3703;48.016;7.802;2022-09-13T12:24:55;30.60;99.90
7325;DHT22;3703;48.016;7.802;2022-09-13T12:27:51;30.40;99.90
7325;DHT22;3703;48.016;7.802;2022-09-13T12:30:47;30.40;99.90
7325;DHT22;3703;48.016;7.802;2022-09-13T12:33:39;30.40;1.00
7325;DHT22;3703;48.016;7.802;2022-09-13T12:36:57;30.30;1.00
7325;DHT22;3703;48.016;7.802;2022-09-13T12:40:05;29.90;1.00
7325;DHT22;3703;48.016;7.802;2022-09-13T12:43:25;29.50;1.00
7325;DHT22;3703;48.016;7.802;2022-09-13T12:46:54;29.40;1.00
7325;DHT22;3703;48.016;7.802;2022-09-13T12:50:10;29.40;99.90
7325;DHT22;3703;48.016;7.802;2022-09-13T12:57:16;29.60;99.90
7325;DHT22;3703;48.016;7.802;2022-09-13T13:00:17;29.90;99.90
7325;DHT22;3703;48.016;7.802;2022-09-13T13:03:13;30.10;99.90
7325;DHT22;3703;48.016;7.802;2022-09-13T13:06:08;30.40;1.00
7325;DHT22;3703;48.016;7.802;2022-09-13T13:08:59;30.70;99.90
7325;DHT22;3703;48.016;7.802;2022-09-13T13:11:50;31.00;31.30
7325;DHT22;3703;48.016;7.802;2022-09-13T13:14:47;31.40;1.00
7325;DHT22;3703;48.016;7.802;2022-09-13T13:17:45;31.70;1.00
7325;DHT22;3703;48.016;7.802;2022-09-13T13:21:21;32.10;1.00
7325;DHT22;3703;48.016;7.802;2022-09-13T13:24:44;32.60;1.00
7325;DHT22;3703;48.016;7.802;2022-09-13T13:27:41;32.80;99.90
7325;DHT22;3703;48.016;7.802;2022-09-13T13:30:49;32.80;99.90
7325;DHT22;3703;48.016;7.802;2022-09-13T13:33:47;32.70;99.90
7325;DHT22;3703;48.016;7.802;2022-09-13T13:36:43;32.80;99.90
7325;DHT22;3703;48.016;7.802;2022-09-13T13:39:39;32.90;99.90
7325;DHT22;3703;48.016;7.802;2022-09-13T13:42:28;33.30;99.90
7325;DHT22;3703;48.016;7.802;2022-09-13T13:45:23;33.40;99.90
7325;DHT22;3703;48.016;7.802;2022-09-13T13:48:13;33.40;99.90
7325;DHT22;3703;48.016;7.802;2022-09-13T13:51:19;33.30;99.90
7325;DHT22;3703;48.016;7.802;2022-09-13T13:54:30;32.90;99.00
7325;DHT22;3703;48.016;7.802;2022-09-13T13:57:40;32.50;99.90
7325;DHT22;3703;48.016;7.802;2022-09-13T14:00:45;32.20;99.90
7325;DHT22;3703;48.016;7.802;2022-09-13T14:03:57;32.10;99.90
7325;DHT22;3703;48.016;7.802;2022-09-13T14:07:00;31.80;99.90
7325;DHT22;3703;48.016;7.802;2022-09-13T14:09:55;31.40;99.90
7325;DHT22;3703;48.016;7.802;2022-09-13T14:13:00;31.10;99.90
7325;DHT22;3703;48.016;7.802;2022-09-13T14:16:04;30.80;99.90
7325;DHT22;3703;48.016;7.802;2022-09-13T14:19:08;30.70;99.90
7325;DHT22;3703;48.016;7.802;2022-09-13T14:22:15;30.60;99.90
7325;DHT22;3703;48.016;7.802;2022-09-13T14:25:14;30.40;1.00
7325;DHT22;3703;48.016;7.802;2022-09-13T14:28:11;30.40;1.00
7325;DHT22;3703;48.016;7.802;2022-09-13T14:31:00;30.40;1.00
7325;DHT22;3703;48.016;7.802;2022-09-13T14:33:48;30.40;99.90
7325;DHT22;3703;48.016;7.802;2022-09-13T14:36:35;30.20;99.90
7325;DHT22;3703;48.016;7.802;2022-09-13T14:39:25;30.10;99.90
7325;DHT22;3703;48.016;7.802;2022-09-13T14:42:14;30.00;99.90
7325;DHT22;3703;48.016;7.802;2022-09-13T14:45:03;30.00;99.90
7325;DHT22;3703;48.016;7.802;2022-09-13T14:47:55;29.90;1.00
7325;DHT22;3703;48.016;7.802;2022-09-13T14:50:48;29.80;1.00
7325;DHT22;3703;48.016;7.802;2022-09-13T14:53:39;29.90;1.00
7325;DHT22;3703;48.016;7.802;2022-09-13T14:56:34;29.90;99.90
7325;DHT22;3703;48.016;7.802;2022-09-13T14:59:26;29.80;99.90
7325;DHT22;3703;48.016;7.802;2022-09-13T15:02:19;29.80;1.00
7325;DHT22;3703;48.016;7.802;2022-09-13T15:05:12;29.70;98.70
7325;DHT22;3703;48.016;7.802;2022-09-13T15:08:25;29.60;99.90
7325;DHT22;3703;48.016;7.802;2022-09-13T15:11:33;29.50;99.90
7325;DHT22;3703;48.016;7.802;2022-09-13T15:14:26;29.40;1.00
7325;DHT22;3703;48.016;7.802;2022-09-13T15:17:16;29.30;47.00
7325;DHT22;3703;48.016;7.802;2022-09-13T15:20:10;29.40;1.00
7325;DHT22;3703;48.016;7.802;2022-09-13T15:22:58;29.20;1.00
7325;DHT22;3703;48.016;7.802;2022-09-13T15:25:51;29.10;1.00
7325;DHT22;3703;48.016;7.802;2022-09-13T15:28:49;29.10;1.00
7325;DHT22;3703;48.016;7.802;2022-09-13T15:31:38;29.00;1.00
7325;DHT22;3703;48.016;7.802;2022-09-13T15:34:26;28.90;95.80
7325;DHT22;3703;48.016;7.802;2022-09-13T15:37:14;28.80;99.90
7325;DHT22;3703;48.016;7.802;2022-09-13T15:40:12;28.80;99.90
7325;DHT22;3703;48.016;7.802;2022-09-13T15:43:02;28.80;1.00
7325;DHT22;3703;48.016;7.802;2022-09-13T15:45:51;28.80;99.90
7325;DHT22;3703;48.016;7.802;2022-09-13T15:48:38;28.70;1.00
7325;DHT22;3703;48.016;7.802;2022-09-13T15:51:36;28.80;99.90
7325;DHT22;3703;48.016;7.802;2022-09-13T15:54:30;29.00;1.00
7325;DHT22;3703;48.016;7.802;2022-09-13T15:57:22;29.00;1.00
7325;DHT22;3703;48.016;7.802;2022-09-13T16:00:20;29.00;99.90
7325;DHT22;3703;48.016;7.802;2022-09-13T16:03:10;28.90;99.90
7325;DHT22;3703;48.016;7.802;2022-09-13T16:05:58;28.90;99.90
7325;DHT22;3703;48.016;7.802;2022-09-13T16:08:46;28.80;99.90
7325;DHT22;3703;48.016;7.802;2022-09-13T16:11:33;28.60;99.90
7325;DHT22;3703;48.016;7.802;2022-09-13T16:14:21;28.50;1.00
7325;DHT22;3703;48.016;7.802;2022-09-13T16:17:11;28.40;99.90
7325;DHT22;3703;48.016;7.802;2022-09-13T16:20:03;28.30;99.90
7325;DHT22;3703;48.016;7.802;2022-09-13T16:22:52;28.30;99.90
7325;DHT22;3703;48.016;7.802;2022-09-13T16:25:40;28.10;99.90
7325;DHT22;3703;48.016;7.802;2022-09-13T16:28:28;28.10;99.90
7325;DHT22;3703;48.016;7.802;2022-09-13T16:31:16;28.00;99.90
7325;DHT22;3703;48.016;7.802;2022-09-13T16:34:05;27.90;99.90
7325;DHT22;3703;48.016;7.802;2022-09-13T16:36:54;27.90;1.00
7325;DHT22;3703;48.016;7.802;2022-09-13T16:39:42;27.80;24.10
7325;DHT22;3703;48.016;7.802;2022-09-13T16:42:33;27.70;1.00
7325;DHT22;3703;48.016;7.802;2022-09-13T16:45:22;27.60;99.90
7325;DHT22;3703;48.016;7.802;2022-09-13T16:48:10;27.60;99.90
7325;DHT22;3703;48.016;7.802;2022-09-13T16:51:01;27.60;1.00
7325;DHT22;3703;48.016;7.802;2022-09-13T16:53:51;27.50;99.90
7325;DHT22;3703;48.016;7.802;2022-09-13T16:56:40;27.40;99.90
7325;DHT22;3703;48.016;7.802;2022-09-13T16:59:27;27.30;99.90
7325;DHT22;3703;48.016;7.802;2022-09-13T17:02:15;27.20;99.90
7325;DHT22;3703;48.016;7.802;2022-09-13T17:05:03;27.20;1.00
7325;DHT22;3703;48.016;7.802;2022-09-13T17:07:53;27.10;1.00
7325;DHT22;3703;48.016;7.802;2022-09-13T17:10:42;27.00;99.90
7325;DHT22;3703;48.016;7.802;2022-09-13T17:13:29;26.70;99.90
7325;DHT22;3703;48.016;7.802;2022-09-13T17:16:24;26.50;99.90
7325;DHT22;3703;48.016;7.802;2022-09-13T17:19:17;26.50;99.90
7325;DHT22;3703;48.016;7.802;2022-09-13T17:22:05;26.30;99.90
7325;DHT22;3703;48.016;7.802;2022-09-13T17:24:54;26.10;1.00
7325;DHT22;3703;48.016;7.802;2022-09-13T17:27:43;26.10;1.00
7325;DHT22;3703;48.016;7.802;2022-09-13T17:30:31;26.10;1.00
7325;DHT22;3703;48.016;7.802;2022-09-13T17:33:19;26.10;1.00
7325;DHT22;3703;48.016;7.802;2022-09-13T17:36:08;26.20;1.00
7325;DHT22;3703;48.016;7.802;2022-09-13T17:38:58;26.20;1.00
7325;DHT22;3703;48.016;7.802;2022-09-13T17:41:46;26.20;1.00
7325;DHT22;3703;48.016;7.802;2022-09-13T17:44:36;26.10;1.00
7325;DHT22;3703;48.016;7.802;2022-09-13T17:47:24;26.10;1.00
7325;DHT22;3703;48.016;7.802;2022-09-13T17:50:12;26.00;1.00
7325;DHT22;3703;48.016;7.802;2022-09-13T17:52:59;25.90;1.00
7325;DHT22;3703;48.016;7.802;2022-09-13T17:55:49;25.90;1.00
7325;DHT22;3703;48.016;7.802;2022-09-13T17:58:37;25.80;1.00
7325;DHT22;3703;48.016;7.802;2022-09-13T18:01:26;25.70;1.00
7325;DHT22;3703;48.016;7.802;2022-09-13T18:04:15;25.60;1.00
7325;DHT22;3703;48.016;7.802;2022-09-13T18:07:04;25.50;1.00
7325;DHT22;3703;48.016;7.802;2022-09-13T18:09:52;25.50;1.00
7325;DHT22;3703;48.016;7.802;2022-09-13T18:12:40;25.50;1.00
7325;DHT22;3703;48.016;7.802;2022-09-13T18:15:28;25.50;1.00
7325;DHT22;3703;48.016;7.802;2022-09-13T18:18:17;25.40;1.00
7325;DHT22;3703;48.016;7.802;2022-09-13T18:21:05;25.30;1.00
7325;DHT22;3703;48.016;7.802;2022-09-13T18:23:55;25.20;1.00
7325;DHT22;3703;48.016;7.802;2022-09-13T18:26:44;25.20;1.00
7325;DHT22;3703;48.016;7.802;2022-09-13T18:29:32;25.10;1.00
7325;DHT22;3703;48.016;7.802;2022-09-13T18:32:20;25.00;1.00
7325;DHT22;3703;48.016;7.802;2022-09-13T18:35:09;24.90;1.00
7325;DHT22;3703;48.016;7.802;2022-09-13T18:37:56;24.90;1.00
7325;DHT22;3703;48.016;7.802;2022-09-13T18:40:46;24.80;1.00
7325;DHT22;3703;48.016;7.802;2022-09-13T18:43:35;24.70;1.00
7325;DHT22;3703;48.016;7.802;2022-09-13T18:46:25;24.70;1.00
7325;DHT22;3703;48.016;7.802;2022-09-13T18:49:15;24.70;1.00
7325;DHT22;3703;48.016;7.802;2022-09-13T18:52:04;24.60;1.00
7325;DHT22;3703;48.016;7.802;2022-09-13T18:54:52;24.60;1.00
7325;DHT22;3703;48.016;7.802;2022-09-13T18:57:40;24.50;1.00
7325;DHT22;3703;48.016;7.802;2022-09-13T19:00:27;24.50;1.00
7325;DHT22;3703;48.016;7.802;2022-09-13T19:03:16;24.30;1.00
7325;DHT22;3703;48.016;7.802;2022-09-13T19:06:10;24.40;1.00
7325;DHT22;3703;48.016;7.802;2022-09-13T19:09:01;24.40;1.00
7325;DHT22;3703;48.016;7.802;2022-09-13T19:11:51;24.30;1.00
7325;DHT22;3703;48.016;7.802;2022-09-13T19:14:39;24.30;1.00
7325;DHT22;3703;48.016;7.802;2022-09-13T19:17:27;24.20;1.00
7325;DHT22;3703;48.016;7.802;2022-09-13T19:20:14;24.30;1.00
7325;DHT22;3703;48.016;7.802;2022-09-13T19:23:02;24.20;1.00